Time;durP1;ratioP1;P1;durP2;ratioP2;P2;SDS_P1;SDS_P2;PMS_P1;PMS_P2;Temp;Humidity;BMP_temperature;BMP_pressure;BME280_temperature;BME280_humidity;BME280_pressure;Samples;Min_cycle;Max_cycle;Signal;HPM_P1;HPM_P2
2022/03/09 00:00:04;;;;;;;;;;;0.50;73.90;;;;;;5012044;28;82029;-50
2022/03/09 00:02:30;;;;;;;;;;;0.50;73.70;;;;;;5011944;28;82945;-50
2022/03/09 00:04:56;;;;;;;;;;;0.50;73.90;;;;;;5012307;28;81822;-47
2022/03/09 00:07:21;;;;;;;;;;;0.50;73.90;;;;;;5011880;28;81893;-50
2022/03/09 00:09:47;;;;;;;;;;;0.50;73.90;;;;;;5011919;28;82793;-50
2022/03/09 00:12:12;;;;;;;;;;;0.50;73.80;;;;;;5011229;28;82923;-50
2022/03/09 00:14:38;;;;;;;;;;;0.50;73.90;;;;;;5011837;28;81920;-50
2022/03/09 00:17:04;;;;;;;;;;;0.50;73.90;;;;;;5014289;28;82819;-50
2022/03/09 00:19:29;;;;;;;;;;;0.50;73.90;;;;;;5011777;28;82143;-50
2022/03/09 00:21:55;;;;;;;;;;;0.40;73.80;;;;;;5011764;28;83008;-49
2022/03/09 00:24:21;;;;;;;;;;;0.50;73.90;;;;;;5011507;28;82473;-50
2022/03/09 00:26:47;;;;;;;;;;;0.50;73.90;;;;;;5011502;28;82184;-49
2022/03/09 00:29:12;;;;;;;;;;;0.50;73.90;;;;;;5012113;28;83140;-49
2022/03/09 00:31:38;;;;;;;;;;;0.40;73.90;;;;;;5011409;28;83436;-49
2022/03/09 00:34:05;;;;;;;;;;;0.40;73.80;;;;;;5011374;28;81858;-50
2022/03/09 00:36:30;;;;;;;;;;;0.40;73.90;;;;;;5011148;28;82814;-50
2022/03/09 00:38:56;;;;;;;;;;;0.40;73.90;;;;;;5014245;28;82301;-49
2022/03/09 00:41:22;;;;;;;;;;;0.40;73.80;;;;;;5011425;28;82737;-50
2022/03/09 00:43:47;;;;;;;;;;;0.40;73.80;;;;;;5011230;28;82718;-49
2022/03/09 00:46:13;;;;;;;;;;;0.40;73.90;;;;;;5011476;28;82049;-49
2022/03/09 00:48:39;;;;;;;;;;;0.40;73.90;;;;;;5011359;28;82102;-49
2022/03/09 00:51:05;;;;;;;;;;;0.40;73.90;;;;;;5010992;28;83508;-50
2022/03/09 00:53:31;;;;;;;;;;;0.40;74.00;;;;;;5012016;28;81241;-50
2022/03/09 00:55:56;;;;;;;;;;;0.40;73.90;;;;;;5011160;28;81764;-49
2022/03/09 00:58:22;;;;;;;;;;;0.40;73.70;;;;;;5011230;28;82347;-50
2022/03/09 01:00:48;;;;;;;;;;;0.40;73.80;;;;;;5013157;28;82773;-50
2022/03/09 01:03:14;;;;;;;;;;;0.40;73.80;;;;;;5010852;28;82655;-50
2022/03/09 01:05:40;;;;;;;;;;;0.40;73.90;;;;;;5011030;28;82110;-50
2022/03/09 01:08:06;;;;;;;;;;;0.40;73.80;;;;;;5011152;28;81842;-50
2022/03/09 01:10:32;;;;;;;;;;;0.40;73.70;;;;;;5010713;28;83432;-50
2022/03/09 01:12:58;;;;;;;;;;;0.30;73.90;;;;;;5010926;28;81959;-50
2022/03/09 01:15:23;;;;;;;;;;;0.30;73.90;;;;;;5011153;28;81938;-50
2022/03/09 01:17:49;;;;;;;;;;;0.30;73.80;;;;;;5011166;28;82862;-50
2022/03/09 01:20:15;;;;;;;;;;;0.30;73.80;;;;;;5011010;28;81877;-51
2022/03/09 01:22:41;;;;;;;;;;;0.30;73.80;;;;;;5013422;28;81848;-50
2022/03/09 01:25:06;;;;;;;;;;;0.30;73.80;;;;;;5010143;28;83033;-50
2022/03/09 01:27:32;;;;;;;;;;;0.30;73.80;;;;;;5010459;28;83667;-50
2022/03/09 01:29:58;;;;;;;;;;;0.30;73.70;;;;;;5010396;28;83654;-50
2022/03/09 01:32:24;;;;;;;;;;;0.30;73.70;;;;;;5010560;28;81800;-50
2022/03/09 01:34:50;;;;;;;;;;;0.30;73.90;;;;;;5010686;28;82865;-49
2022/03/09 01:37:15;;;;;;;;;;;0.30;73.80;;;;;;5010584;28;82219;-49
2022/03/09 01:39:41;;;;;;;;;;;0.30;73.80;;;;;;5010883;28;81803;-49
2022/03/09 01:42:07;;;;;;;;;;;0.30;73.80;;;;;;5013408;28;82855;-51
2022/03/09 01:44:33;;;;;;;;;;;0.30;73.80;;;;;;5010441;28;81902;-50
2022/03/09 01:46:58;;;;;;;;;;;0.30;73.80;;;;;;5010379;28;83036;-50
2022/03/09 01:49:24;;;;;;;;;;;0.20;73.80;;;;;;5009499;28;84419;-49
2022/03/09 01:51:53;;;;;;;;;;;0.30;73.70;;;;;;5010475;28;81759;-50
2022/03/09 01:54:19;;;;;;;;;;;0.30;73.90;;;;;;5010389;28;82781;-49
2022/03/09 01:56:46;;;;;;;;;;;0.20;73.90;;;;;;5009798;28;82606;-49
2022/03/09 01:59:12;;;;;;;;;;;0.30;73.70;;;;;;5009643;28;81930;-49
2022/03/09 02:01:38;;;;;;;;;;;0.20;73.60;;;;;;5010222;28;83052;-49
2022/03/09 02:04:04;;;;;;;;;;;0.20;74.00;;;;;;5012912;28;81880;-50
2022/03/09 02:06:30;;;;;;;;;;;0.20;73.80;;;;;;5010525;28;82016;-49
2022/03/09 02:11:41;;;;;;;;;;;0.20;73.80;;;;;;5010396;28;81824;-50
2022/03/09 02:14:24;;;;;;;;;;;0.20;73.60;;;;;;5009488;28;82774;-49
2022/03/09 02:16:50;;;;;;;;;;;0.20;73.70;;;;;;5009459;28;82482;-49
2022/03/09 02:19:15;;;;;;;;;;;0.20;73.70;;;;;;5010222;28;81858;-49
2022/03/09 02:21:41;;;;;;;;;;;0.20;73.70;;;;;;5010152;28;81799;-49
2022/03/09 02:24:07;;;;;;;;;;;0.20;73.60;;;;;;5009679;28;83773;-49
2022/03/09 02:26:32;;;;;;;;;;;0.20;73.60;;;;;;5012722;28;82279;-49
2022/03/09 02:28:58;;;;;;;;;;;0.20;73.50;;;;;;5009695;28;82681;-49
2022/03/09 02:31:23;;;;;;;;;;;0.10;73.60;;;;;;5010525;28;81096;-49
2022/03/09 02:33:49;;;;;;;;;;;0.10;73.60;;;;;;5009347;28;81830;-50
2022/03/09 02:36:15;;;;;;;;;;;0.20;73.60;;;;;;5009422;28;82664;-49
2022/03/09 02:38:40;;;;;;;;;;;0.10;73.60;;;;;;5009120;28;82738;-50
2022/03/09 02:41:06;;;;;;;;;;;0.10;73.60;;;;;;5009910;28;82687;-49
2022/03/09 02:43:32;;;;;;;;;;;0.10;73.80;;;;;;5009276;28;83697;-50
2022/03/09 02:45:57;;;;;;;;;;;0.10;73.70;;;;;;5009515;28;82101;-49
2022/03/09 02:48:23;;;;;;;;;;;0.10;73.70;;;;;;5012111;28;82876;-50
2022/03/09 02:50:48;;;;;;;;;;;0.10;73.70;;;;;;5009425;28;81719;-49
2022/03/09 02:53:14;;;;;;;;;;;0.10;73.60;;;;;;5009751;28;82081;-49
2022/03/09 02:55:40;;;;;;;;;;;0.10;73.60;;;;;;5009690;28;81565;-49
2022/03/09 02:58:05;;;;;;;;;;;0.10;73.50;;;;;;5009595;28;81939;-49
2022/03/09 03:00:31;;;;;;;;;;;0.10;73.40;;;;;;5009354;28;83084;-49
2022/03/09 03:02:56;;;;;;;;;;;0.10;73.60;;;;;;5008099;28;84536;-50
2022/03/09 03:05:22;;;;;;;;;;;0.10;73.40;;;;;;5008909;28;82119;-49
2022/03/09 03:07:47;;;;;;;;;;;0.00;73.60;;;;;;5009446;28;81872;-49
2022/03/09 03:10:14;;;;;;;;;;;0.00;73.70;;;;;;5011681;28;82920;-49
2022/03/09 03:12:40;;;;;;;;;;;0.00;73.50;;;;;;5009279;28;83057;-49
2022/03/09 03:15:06;;;;;;;;;;;0.00;73.70;;;;;;5009003;28;83427;-49
2022/03/09 03:17:35;;;;;;;;;;;0.00;73.50;;;;;;5009421;28;82089;-49
2022/03/09 03:20:01;;;;;;;;;;;0.00;73.60;;;;;;5009671;28;82633;-49
2022/03/09 03:22:27;;;;;;;;;;;0.10;73.40;;;;;;5008915;28;83559;-49
2022/03/09 03:24:53;;;;;;;;;;;0.10;73.20;;;;;;5008777;28;82065;-49
2022/03/09 03:27:18;;;;;;;;;;;-0.10;73.60;;;;;;5008317;28;82974;-50
2022/03/09 03:29:44;;;;;;;;;;;0.00;73.50;;;;;;5012006;28;82443;-50
2022/03/09 03:32:10;;;;;;;;;;;0.00;73.50;;;;;;5015301;28;81961;-50
2022/03/09 03:34:36;;;;;;;;;;;0.00;73.60;;;;;;5012304;28;83397;-50
2022/03/09 03:37:03;;;;;;;;;;;0.00;73.60;;;;;;5012741;28;81889;-49
2022/03/09 03:39:29;;;;;;;;;;;0.00;73.60;;;;;;5012696;28;81846;-50
2022/03/09 03:41:54;;;;;;;;;;;0.00;73.50;;;;;;5012115;28;83431;-50
2022/03/09 03:44:20;;;;;;;;;;;0.00;73.50;;;;;;5012858;28;81121;-49
2022/03/09 03:46:46;;;;;;;;;;;0.00;73.70;;;;;;5012275;28;81831;-49
2022/03/09 03:49:11;;;;;;;;;;;0.00;73.60;;;;;;5012065;28;83541;-49
2022/03/09 03:51:37;;;;;;;;;;;-0.10;73.50;;;;;;5014458;28;82731;-49
2022/03/09 03:54:03;;;;;;;;;;;0.00;73.60;;;;;;5012246;28;81831;-49
2022/03/09 03:56:28;;;;;;;;;;;-0.10;73.50;;;;;;5012137;28;82072;-49
2022/03/09 03:58:54;;;;;;;;;;;-0.10;73.50;;;;;;5012346;28;81862;-49
2022/03/09 04:01:20;;;;;;;;;;;-0.20;73.70;;;;;;5012058;28;81851;-49
2022/03/09 04:03:45;;;;;;;;;;;-0.10;73.60;;;;;;5012068;28;81925;-50
2022/03/09 04:06:11;;;;;;;;;;;-0.20;73.70;;;;;;5011926;28;82144;-49
2022/03/09 04:08:37;;;;;;;;;;;-0.10;73.80;;;;;;5012211;28;82919;-50
2022/03/09 04:11:02;;;;;;;;;;;-0.10;73.60;;;;;;5011834;28;82128;-49
2022/03/09 04:13:28;;;;;;;;;;;-0.10;73.60;;;;;;5014356;28;81987;-49
2022/03/09 04:15:53;;;;;;;;;;;-0.10;73.50;;;;;;5011431;28;82781;-49
2022/03/09 04:18:19;;;;;;;;;;;-0.10;73.60;;;;;;5011797;28;83683;-49
2022/03/09 04:20:45;;;;;;;;;;;-0.10;73.60;;;;;;5011781;28;82380;-49
2022/03/09 04:23:10;;;;;;;;;;;-0.10;73.70;;;;;;5011742;28;81841;-49
2022/03/09 04:25:37;;;;;;;;;;;-0.20;73.90;;;;;;5011685;28;82078;-49
2022/03/09 04:28:03;;;;;;;;;;;-0.20;73.80;;;;;;5011651;28;82332;-49
2022/03/09 04:30:29;;;;;;;;;;;-0.20;73.90;;;;;;5011491;28;81824;-49
2022/03/09 04:32:54;;;;;;;;;;;-0.20;74.50;;;;;;5011234;28;81997;-49
2022/03/09 04:35:21;;;;;;;;;;;-0.20;74.00;;;;;;5014392;28;81975;-49
2022/03/09 04:37:46;;;;;;;;;;;-0.20;73.80;;;;;;5011521;28;82076;-49
2022/03/09 04:40:12;;;;;;;;;;;-0.20;73.80;;;;;;5010495;28;83185;-49
2022/03/09 04:42:38;;;;;;;;;;;-0.20;74.00;;;;;;5011417;28;81829;-49
2022/03/09 04:45:04;;;;;;;;;;;-0.20;73.90;;;;;;5011287;28;82911;-49
2022/03/09 04:47:30;;;;;;;;;;;-0.30;73.90;;;;;;5011039;28;83450;-49
2022/03/09 04:49:55;;;;;;;;;;;-0.30;74.10;;;;;;5011387;28;81773;-49
2022/03/09 04:52:21;;;;;;;;;;;-0.30;74.30;;;;;;5011242;28;82905;-49
2022/03/09 04:54:47;;;;;;;;;;;-0.30;73.90;;;;;;5011249;28;81891;-49
2022/03/09 04:57:12;;;;;;;;;;;-0.30;74.10;;;;;;5014285;28;81170;-50
2022/03/09 04:59:38;;;;;;;;;;;-0.30;74.10;;;;;;5010859;28;83508;-49
2022/03/09 05:02:04;;;;;;;;;;;-0.30;74.00;;;;;;5011398;28;81989;-49
2022/03/09 05:04:29;;;;;;;;;;;-0.30;73.90;;;;;;5010609;28;82906;-49
2022/03/09 05:06:55;;;;;;;;;;;-0.30;74.00;;;;;;5010653;28;83753;-49
2022/03/09 05:09:21;;;;;;;;;;;-0.40;73.90;;;;;;5011352;28;81824;-49
2022/03/09 05:11:47;;;;;;;;;;;-0.30;73.90;;;;;;5010930;28;82739;-49
2022/03/09 05:14:12;;;;;;;;;;;-0.30;73.70;;;;;;5010920;28;82465;-49
2022/03/09 05:16:39;;;;;;;;;;;-0.30;73.90;;;;;;5011170;28;81892;-49
2022/03/09 05:19:05;;;;;;;;;;;-0.30;73.70;;;;;;5013404;28;83018;-49
2022/03/09 05:21:31;;;;;;;;;;;-0.30;73.70;;;;;;5011264;28;81164;-49
2022/03/09 05:23:57;;;;;;;;;;;-0.40;73.80;;;;;;5011118;28;81746;-50
2022/03/09 05:26:22;;;;;;;;;;;-0.40;73.80;;;;;;5010685;28;82094;-49
2022/03/09 05:28:48;;;;;;;;;;;-0.40;73.90;;;;;;5010128;28;82786;-51
2022/03/09 05:31:14;;;;;;;;;;;-0.40;73.90;;;;;;5010798;28;81896;-48
2022/03/09 05:33:39;;;;;;;;;;;-0.40;74.00;;;;;;5010590;28;82471;-48
2022/03/09 05:36:05;;;;;;;;;;;-0.40;74.00;;;;;;5010518;28;81837;-48
2022/03/09 05:38:30;;;;;;;;;;;-0.40;74.00;;;;;;5010894;28;81865;-48
2022/03/09 05:40:56;;;;;;;;;;;-0.40;74.10;;;;;;5013029;28;82511;-48
2022/03/09 05:43:22;;;;;;;;;;;-0.40;74.20;;;;;;5010740;28;82030;-48
2022/03/09 05:45:48;;;;;;;;;;;-0.50;74.10;;;;;;5010711;28;82000;-48
2022/03/09 05:48:13;;;;;;;;;;;-0.50;74.00;;;;;;5010282;28;81834;-48
2022/03/09 05:50:39;;;;;;;;;;;-0.40;74.10;;;;;;5009894;28;81832;-48
2022/03/09 05:53:05;;;;;;;;;;;-0.40;74.20;;;;;;5009634;28;83356;-49
2022/03/09 05:55:30;;;;;;;;;;;-0.50;74.20;;;;;;5009979;28;81704;-48
2022/03/09 05:57:56;;;;;;;;;;;-0.40;73.90;;;;;;5010373;28;81843;-48
2022/03/09 06:00:22;;;;;;;;;;;-0.40;73.80;;;;;;5012908;28;82559;-49
2022/03/09 06:02:47;;;;;;;;;;;-0.40;74.00;;;;;;5009581;28;82341;-49
2022/03/09 06:05:13;;;;;;;;;;;-0.40;73.70;;;;;;5009972;28;82402;-48
2022/03/09 06:07:38;;;;;;;;;;;-0.40;73.80;;;;;;5009983;28;82207;-49
2022/03/09 06:10:05;;;;;;;;;;;-0.40;73.70;;;;;;5010545;28;81898;-48
2022/03/09 06:12:31;;;;;;;;;;;-0.40;73.90;;;;;;5009815;28;82421;-48
2022/03/09 06:14:57;;;;;;;;;;;-0.40;73.80;;;;;;5009989;28;81765;-48
2022/03/09 06:17:22;;;;;;;;;;;-0.40;74.10;;;;;;5009326;28;83099;-49
2022/03/09 06:19:48;;;;;;;;;;;-0.40;74.00;;;;;;5009101;28;82702;-48
2022/03/09 06:22:14;;;;;;;;;;;-0.40;73.90;;;;;;5012792;28;81773;-48
2022/03/09 06:24:39;;;;;;;;;;;-0.40;73.90;;;;;;5009960;28;82416;-48
2022/03/09 06:27:05;;;;;;;;;;;-0.40;73.90;;;;;;5009719;28;81854;-48
2022/03/09 06:29:31;;;;;;;;;;;-0.40;73.70;;;;;;5009812;28;81979;-48
2022/03/09 06:31:56;;;;;;;;;;;-0.40;73.80;;;;;;5009527;28;82542;-48
2022/03/09 06:34:22;;;;;;;;;;;-0.40;74.00;;;;;;5010384;28;81453;-48
2022/03/09 06:36:48;;;;;;;;;;;-0.40;74.00;;;;;;5009903;28;82202;-48
2022/03/09 06:39:14;;;;;;;;;;;-0.40;73.90;;;;;;5009371;28;83624;-49
2022/03/09 06:41:43;;;;;;;;;;;-0.40;74.00;;;;;;5009243;28;82775;-48
2022/03/09 06:44:10;;;;;;;;;;;-0.50;74.30;;;;;;5012081;28;83875;-48
2022/03/09 06:46:36;;;;;;;;;;;-0.40;73.90;;;;;;5009726;28;82093;-48
2022/03/09 06:49:02;;;;;;;;;;;-0.40;74.20;;;;;;5009946;28;81900;-48
2022/03/09 06:51:27;;;;;;;;;;;-0.40;73.90;;;;;;5009316;28;83321;-48
2022/03/09 06:53:53;;;;;;;;;;;-0.40;73.80;;;;;;5009436;28;81915;-48
2022/03/09 06:56:19;;;;;;;;;;;-0.30;73.80;;;;;;5009183;28;83527;-48
2022/03/09 06:58:45;;;;;;;;;;;-0.40;74.10;;;;;;5009761;28;81889;-48
2022/03/09 07:01:11;;;;;;;;;;;-0.40;73.90;;;;;;5009434;28;81776;-48
2022/03/09 07:03:37;;;;;;;;;;;-0.40;74.10;;;;;;5012477;28;81806;-48
2022/03/09 07:06:03;;;;;;;;;;;-0.30;73.90;;;;;;5014735;28;83593;-48
2022/03/09 07:08:28;;;;;;;;;;;-0.40;73.60;;;;;;5012763;28;82680;-48
2022/03/09 07:13:38;;;;;;;;;;;-0.50;73.90;;;;;;5009651;28;82060;-50
2022/03/09 07:16:04;;;;;;;;;;;-0.50;74.40;;;;;;5012283;28;82907;-49
2022/03/09 07:18:29;;;;;;;;;;;-0.40;74.30;;;;;;5012432;28;82377;-51
2022/03/09 07:20:55;;;;;;;;;;;-0.30;73.80;;;;;;5012288;28;81913;-52
2022/03/09 07:23:20;;;;;;;;;;;-0.20;73.60;;;;;;5012643;28;83096;-49
2022/03/09 07:25:46;;;;;;;;;;;-0.30;73.70;;;;;;5012017;28;82360;-49
2022/03/09 07:28:11;;;;;;;;;;;-0.30;74.00;;;;;;5014682;28;81743;-48
2022/03/09 07:30:37;;;;;;;;;;;-0.40;74.10;;;;;;5011182;28;84375;-49
2022/03/09 07:33:02;;;;;;;;;;;-0.30;73.90;;;;;;5012228;28;81867;-48
2022/03/09 07:35:28;;;;;;;;;;;-0.30;74.00;;;;;;5012233;28;81855;-50
2022/03/09 07:37:53;;;;;;;;;;;-0.30;73.90;;;;;;5011748;28;83388;-48
2022/03/09 07:40:20;;;;;;;;;;;-0.30;73.80;;;;;;5012430;28;82171;-48
2022/03/09 07:42:45;;;;;;;;;;;-0.30;74.10;;;;;;5012198;28;83241;-48
2022/03/09 07:45:11;;;;;;;;;;;-0.30;74.00;;;;;;5010990;28;82481;-49
2022/03/09 07:47:37;;;;;;;;;;;-0.30;73.90;;;;;;5012193;28;81066;-49
2022/03/09 07:50:04;;;;;;;;;;;-0.30;73.80;;;;;;5014250;28;81898;-48
2022/03/09 07:52:29;;;;;;;;;;;-0.30;73.90;;;;;;5011621;28;82204;-48
2022/03/09 07:54:55;;;;;;;;;;;-0.40;74.00;;;;;;5011046;28;82783;-51
2022/03/09 07:57:21;;;;;;;;;;;-0.30;74.00;;;;;;5010974;28;83748;-50
2022/03/09 07:59:46;;;;;;;;;;;-0.40;74.00;;;;;;5011576;28;81736;-49
2022/03/09 08:02:12;;;;;;;;;;;-0.30;74.10;;;;;;5011913;28;82333;-52
2022/03/09 08:04:38;;;;;;;;;;;-0.30;73.90;;;;;;5011230;28;83710;-48
2022/03/09 08:07:03;;;;;;;;;;;-0.30;73.90;;;;;;5011455;28;81837;-50
2022/03/09 08:09:29;;;;;;;;;;;-0.40;74.10;;;;;;5013934;28;83158;-51
2022/03/09 08:11:55;;;;;;;;;;;-0.40;74.00;;;;;;5011996;28;81087;-49
2022/03/09 08:14:20;;;;;;;;;;;-0.40;74.40;;;;;;5010889;28;81739;-49
2022/03/09 08:16:46;;;;;;;;;;;-0.40;74.30;;;;;;5011109;28;83072;-48
2022/03/09 08:19:11;;;;;;;;;;;-0.40;74.40;;;;;;5010964;28;83170;-49
2022/03/09 08:21:37;;;;;;;;;;;-0.40;74.60;;;;;;5011343;28;83902;-48
2022/03/09 08:24:03;;;;;;;;;;;-0.40;74.40;;;;;;5010927;28;82722;-49
2022/03/09 08:26:28;;;;;;;;;;;-0.50;74.50;;;;;;5010200;28;82147;-49
2022/03/09 08:28:54;;;;;;;;;;;-0.40;74.50;;;;;;5011134;28;82923;-48
2022/03/09 08:31:20;;;;;;;;;;;-0.40;74.30;;;;;;5013844;28;82221;-51
2022/03/09 08:33:45;;;;;;;;;;;-0.40;74.50;;;;;;5010979;28;82932;-49
2022/03/09 08:36:11;;;;;;;;;;;-0.40;74.30;;;;;;5011908;28;81678;-50
2022/03/09 08:38:37;;;;;;;;;;;-0.40;74.50;;;;;;5010922;28;81944;-49
2022/03/09 08:41:02;;;;;;;;;;;-0.40;74.60;;;;;;5011194;28;81858;-48
2022/03/09 08:43:28;;;;;;;;;;;-0.40;74.70;;;;;;5009957;28;84563;-49
2022/03/09 08:45:53;;;;;;;;;;;-0.40;74.50;;;;;;5010760;28;81798;-48
2022/03/09 08:48:19;;;;;;;;;;;-0.40;74.40;;;;;;5010864;28;82760;-49
2022/03/09 08:50:45;;;;;;;;;;;-0.40;74.50;;;;;;5010405;28;83525;-50
2022/03/09 08:53:10;;;;;;;;;;;-0.40;74.70;;;;;;5013869;28;81933;-49
2022/03/09 08:55:36;;;;;;;;;;;-0.40;74.80;;;;;;5010160;28;82730;-48
2022/03/09 08:58:02;;;;;;;;;;;-0.40;74.70;;;;;;5010828;28;81860;-48
2022/03/09 09:00:28;;;;;;;;;;;-0.40;74.80;;;;;;5011202;28;82826;-49
2022/03/09 09:02:58;;;;;;;;;;;-0.40;74.90;;;;;;5010486;28;82751;-48
2022/03/09 09:05:24;;;;;;;;;;;-0.40;75.10;;;;;;5010434;28;81892;-51
2022/03/09 09:07:50;;;;;;;;;;;-0.40;74.70;;;;;;5010013;28;82774;-48
2022/03/09 09:10:15;;;;;;;;;;;-0.40;74.80;;;;;;5010250;28;82634;-49
2022/03/09 09:12:41;;;;;;;;;;;-0.40;74.70;;;;;;5010439;28;81905;-48
2022/03/09 09:15:07;;;;;;;;;;;-0.40;75.00;;;;;;5012829;28;82014;-51
2022/03/09 09:17:33;;;;;;;;;;;-0.40;74.70;;;;;;5010334;28;81874;-52
2022/03/09 09:19:58;;;;;;;;;;;-0.40;74.90;;;;;;5010661;28;81859;-49
2022/03/09 09:22:24;;;;;;;;;;;-0.30;75.40;;;;;;5010409;28;82480;-50
2022/03/09 09:24:49;;;;;;;;;;;-0.30;74.40;;;;;;5010672;28;81024;-50
2022/03/09 09:27:15;;;;;;;;;;;-0.30;74.80;;;;;;5008831;28;81919;-48
2022/03/09 09:29:41;;;;;;;;;;;-0.20;74.70;;;;;;5009987;28;83561;-50
2022/03/09 09:32:06;;;;;;;;;;;-0.30;74.70;;;;;;5008807;28;82758;-50
2022/03/09 09:34:32;;;;;;;;;;;-0.30;74.80;;;;;;5010200;28;84441;-49
2022/03/09 09:36:59;;;;;;;;;;;-0.30;74.80;;;;;;5012701;28;82533;-49
2022/03/09 09:39:24;;;;;;;;;;;-0.30;74.90;;;;;;5009963;28;82920;-49
2022/03/09 09:41:52;;;;;;;;;;;-0.30;74.90;;;;;;5009987;28;82641;-48
2022/03/09 09:44:19;;;;;;;;;;;-0.30;75.00;;;;;;5009913;28;81930;-49
2022/03/09 09:46:45;;;;;;;;;;;-0.30;74.90;;;;;;5010097;28;82067;-49
2022/03/09 09:49:12;;;;;;;;;;;-0.30;75.00;;;;;;5010055;28;82690;-51
2022/03/09 09:51:39;;;;;;;;;;;-0.20;75.00;;;;;;5009686;28;81895;-49
2022/03/09 09:54:08;;;;;;;;;;;-0.20;75.00;;;;;;5010184;28;81856;-50
2022/03/09 09:56:38;;;;;;;;;;;-0.20;75.00;;;;;;5009196;28;83366;-49
2022/03/09 09:59:03;;;;;;;;;;;-0.20;75.00;;;;;;5012375;28;81758;-49
2022/03/09 10:01:29;;;;;;;;;;;-0.10;75.00;;;;;;5009695;28;82339;-50
2022/03/09 10:03:54;;;;;;;;;;;-0.10;74.70;;;;;;5010050;28;82272;-49
2022/03/09 10:06:20;;;;;;;;;;;-0.10;74.80;;;;;;5009655;28;82879;-50
2022/03/09 10:09:01;;;;;;;;;;;-0.10;74.80;;;;;;5009505;28;83084;-49
2022/03/09 10:11:43;;;;;;;;;;;0.00;74.80;;;;;;5009546;28;81911;-49
2022/03/09 10:14:09;;;;;;;;;;;0.00;74.70;;;;;;5009897;28;82855;-48
2022/03/09 10:16:34;;;;;;;;;;;0.00;74.50;;;;;;5009582;28;82417;-49
2022/03/09 10:21:44;;;;;;;;;;;0.00;74.50;;;;;;5005571;28;83025;-50
2022/03/09 10:24:11;;;;;;;;;;;0.00;74.40;;;;;;5009236;28;81921;-49
2022/03/09 10:26:40;;;;;;;;;;;0.10;74.30;;;;;;5009491;28;81939;-49
2022/03/09 10:29:10;;;;;;;;;;;0.10;74.20;;;;;;5009134;28;83427;-50
2022/03/09 10:31:37;;;;;;;;;;;0.10;74.00;;;;;;5009290;28;81832;-49
2022/03/09 10:34:24;;;;;;;;;;;0.20;73.90;;;;;;5009250;28;81866;-49
2022/03/09 10:36:57;;;;;;;;;;;0.20;73.80;;;;;;5008269;28;84619;-51
2022/03/09 10:39:24;;;;;;;;;;;0.20;73.90;;;;;;5009662;28;81162;-49
2022/03/09 10:41:49;;;;;;;;;;;0.20;73.90;;;;;;5011706;28;82145;-52
2022/03/09 10:44:15;;;;;;;;;;;0.20;73.90;;;;;;5009433;28;81900;-50
2022/03/09 10:46:42;;;;;;;;;;;0.20;73.80;;;;;;5005305;28;82794;-49
2022/03/09 10:49:08;;;;;;;;;;;0.20;73.60;;;;;;4988947;28;83354;-49
2022/03/09 10:51:37;;;;;;;;;;;0.30;73.70;;;;;;4989124;28;81877;-49
2022/03/09 10:54:22;;;;;;;;;;;0.30;73.30;;;;;;4989425;28;82205;-49
2022/03/09 10:56:48;;;;;;;;;;;0.30;73.50;;;;;;4988692;28;83474;-50
2022/03/09 10:59:20;;;;;;;;;;;0.30;73.70;;;;;;4989035;28;81852;-51
2022/03/09 11:02:03;;;;;;;;;;;0.30;73.80;;;;;;4988702;28;81855;-50
2022/03/09 11:04:28;;;;;;;;;;;0.30;73.30;;;;;;4991993;28;81854;-49
2022/03/09 11:06:56;;;;;;;;;;;0.30;73.90;;;;;;4988930;28;82389;-51
2022/03/09 11:09:21;;;;;;;;;;;0.30;73.70;;;;;;4988737;28;82571;-49
2022/03/09 11:11:48;;;;;;;;;;;0.30;73.60;;;;;;4988267;28;82859;-49
2022/03/09 11:14:15;;;;;;;;;;;0.30;73.50;;;;;;4988845;28;83047;-49
2022/03/09 11:16:43;;;;;;;;;;;0.30;73.60;;;;;;4989068;28;81877;-50
2022/03/09 11:19:13;;;;;;;;;;;0.30;73.50;;;;;;4988952;28;81782;-51
2022/03/09 11:21:39;;;;;;;;;;;0.30;73.30;;;;;;4988839;28;82825;-51
2022/03/09 11:24:09;;;;;;;;;;;0.40;73.30;;;;;;4988846;28;82751;-49
2022/03/09 11:26:36;;;;;;;;;;;0.30;73.50;;;;;;4991756;28;81829;-49
2022/03/09 11:29:06;;;;;;;;;;;0.40;73.60;;;;;;4989227;28;82873;-49
2022/03/09 11:31:43;;;;;;;;;;;0.40;73.40;;;;;;4988782;28;81936;-49
2022/03/09 11:34:28;;;;;;;;;;;0.40;73.20;;;;;;4988937;28;81840;-49
2022/03/09 11:36:59;;;;;;;;;;;0.40;73.40;;;;;;4987545;28;83731;-51
2022/03/09 11:39:25;;;;;;;;;;;0.40;73.00;;;;;;4988679;28;81919;-50
2022/03/09 11:42:16;;;;;;;;;;;0.40;73.00;;;;;;4988578;28;82943;-50
2022/03/09 11:44:43;;;;;;;;;;;0.40;72.80;;;;;;4983259;28;82644;-51
2022/03/09 11:47:08;;;;;;;;;;;0.40;72.80;;;;;;4988408;28;81992;-49
2022/03/09 11:49:45;;;;;;;;;;;0.50;72.40;;;;;;4992157;28;83115;-51
2022/03/09 11:52:11;;;;;;;;;;;0.50;72.30;;;;;;4991768;28;81871;-49
2022/03/09 11:54:55;;;;;;;;;;;0.50;72.50;;;;;;4992269;28;82801;-51
2022/03/09 11:57:23;;;;;;;;;;;0.50;72.60;;;;;;4991149;28;83525;-49
2022/03/09 12:00:07;;;;;;;;;;;0.50;72.50;;;;;;4991670;28;81855;-51
2022/03/09 12:02:40;;;;;;;;;;;0.50;72.30;;;;;;4991321;28;83075;-50
2022/03/09 12:05:06;;;;;;;;;;;0.60;72.50;;;;;;4991438;28;83464;-49
2022/03/09 12:07:33;;;;;;;;;;;0.60;72.80;;;;;;4991477;28;81910;-50
2022/03/09 12:09:59;;;;;;;;;;;0.60;72.50;;;;;;4994378;28;82081;-54
2022/03/09 12:12:26;;;;;;;;;;;0.60;72.40;;;;;;4991603;28;81902;-52
2022/03/09 12:15:07;;;;;;;;;;;0.60;72.30;;;;;;4991464;28;82025;-50
2022/03/09 12:17:36;;;;;;;;;;;0.70;72.20;;;;;;4991171;28;84116;-49
2022/03/09 12:20:23;;;;;;;;;;;0.70;72.40;;;;;;4991899;28;81087;-50
2022/03/09 12:23:00;;;;;;;;;;;0.70;72.60;;;;;;4990768;28;81829;-50
2022/03/09 12:25:38;;;;;;;;;;;0.70;72.60;;;;;;4991016;28;83642;-49
2022/03/09 12:28:25;;;;;;;;;;;0.70;72.30;;;;;;4991006;28;82737;-49
2022/03/09 12:31:03;;;;;;;;;;;0.70;72.10;;;;;;4991723;28;83831;-50
2022/03/09 12:33:30;;;;;;;;;;;0.70;72.40;;;;;;4994193;28;83493;-52
2022/03/09 12:36:07;;;;;;;;;;;0.80;72.30;;;;;;4992068;28;81871;-51
2022/03/09 12:38:43;;;;;;;;;;;0.80;72.00;;;;;;4991317;28;83637;-50
2022/03/09 12:41:25;;;;;;;;;;;0.80;72.30;;;;;;4991403;28;81751;-49
2022/03/09 12:43:51;;;;;;;;;;;0.80;72.00;;;;;;4991460;28;82787;-49
2022/03/09 12:46:18;;;;;;;;;;;0.80;71.90;;;;;;4991664;28;81716;-49
2022/03/09 12:48:44;;;;;;;;;;;0.80;72.20;;;;;;4991352;28;81813;-49
2022/03/09 12:51:09;;;;;;;;;;;0.80;72.10;;;;;;4991279;28;81960;-49
2022/03/09 12:53:36;;;;;;;;;;;0.80;71.80;;;;;;4989847;28;84587;-50
2022/03/09 12:56:21;;;;;;;;;;;0.90;71.80;;;;;;4993447;28;81825;-49
2022/03/09 12:58:47;;;;;;;;;;;0.90;71.40;;;;;;4990618;28;83484;-50
2022/03/09 13:01:13;;;;;;;;;;;0.90;71.20;;;;;;4990962;28;81895;-49
2022/03/09 13:03:39;;;;;;;;;;;0.90;71.80;;;;;;4991279;28;82313;-49
2022/03/09 13:06:05;;;;;;;;;;;0.90;71.60;;;;;;4990647;28;83435;-52
2022/03/09 13:08:35;;;;;;;;;;;0.90;71.40;;;;;;4991016;28;81944;-53
2022/03/09 13:11:03;;;;;;;;;;;0.90;71.30;;;;;;4990923;28;83010;-52
2022/03/09 13:13:29;;;;;;;;;;;0.90;71.50;;;;;;4990573;28;82466;-51
2022/03/09 13:15:59;;;;;;;;;;;1.00;71.50;;;;;;4990841;28;82324;-50
2022/03/09 13:18:26;;;;;;;;;;;1.00;71.50;;;;;;4992348;28;82877;-50
2022/03/09 13:20:52;;;;;;;;;;;1.00;71.50;;;;;;4990448;28;81936;-53
2022/03/09 13:23:27;;;;;;;;;;;1.00;71.60;;;;;;4990962;28;81805;-49
2022/03/09 13:25:53;;;;;;;;;;;1.00;71.20;;;;;;4990837;28;82095;-54
2022/03/09 13:28:27;;;;;;;;;;;1.00;71.40;;;;;;4990349;28;81895;-50
2022/03/09 13:30:53;;;;;;;;;;;1.00;71.50;;;;;;4990652;28;81921;-51
2022/03/09 13:33:21;;;;;;;;;;;1.10;71.40;;;;;;4990515;28;82378;-50
2022/03/09 13:35:48;;;;;;;;;;;1.10;71.60;;;;;;4991165;28;81111;-49
2022/03/09 13:38:20;;;;;;;;;;;1.10;71.50;;;;;;4990220;28;81847;-51
2022/03/09 13:40:46;;;;;;;;;;;1.00;71.30;;;;;;4992911;28;82002;-51
2022/03/09 13:43:11;;;;;;;;;;;1.10;71.30;;;;;;4989862;28;82801;-50
2022/03/09 13:45:40;;;;;;;;;;;1.10;71.40;;;;;;4990131;28;82238;-50
2022/03/09 13:48:07;;;;;;;;;;;1.10;71.60;;;;;;4989992;28;81960;-51
2022/03/09 13:50:48;;;;;;;;;;;1.10;71.60;;;;;;4990018;28;82907;-50
2022/03/09 13:53:14;;;;;;;;;;;1.10;71.60;;;;;;4990054;28;82583;-50
2022/03/09 13:55:40;;;;;;;;;;;1.10;71.40;;;;;;4989669;28;81931;-51
2022/03/09 13:58:07;;;;;;;;;;;1.10;71.20;;;;;;4990102;28;82680;-50
2022/03/09 14:00:36;;;;;;;;;;;1.10;71.20;;;;;;4990399;28;82733;-50
2022/03/09 14:03:15;;;;;;;;;;;1.10;71.10;;;;;;4992601;28;81858;-50
2022/03/09 14:05:42;;;;;;;;;;;1.10;71.20;;;;;;4990007;28;82599;-50
2022/03/09 14:08:09;;;;;;;;;;;1.20;71.20;;;;;;4989159;28;82741;-52
2022/03/09 14:10:36;;;;;;;;;;;1.10;71.40;;;;;;4989821;28;83838;-52
2022/03/09 14:13:13;;;;;;;;;;;1.20;71.50;;;;;;4988857;28;82761;-50
2022/03/09 14:15:39;;;;;;;;;;;1.20;71.40;;;;;;4989333;28;81849;-51
2022/03/09 14:18:05;;;;;;;;;;;1.20;71.20;;;;;;4989792;28;83105;-51
2022/03/09 14:20:30;;;;;;;;;;;1.20;71.60;;;;;;4989551;28;82367;-52
2022/03/09 14:22:56;;;;;;;;;;;1.20;71.40;;;;;;4992571;28;81819;-53
2022/03/09 14:25:22;;;;;;;;;;;1.20;71.40;;;;;;4990032;28;81755;-53
2022/03/09 14:27:48;;;;;;;;;;;1.20;71.60;;;;;;4989530;28;81925;-51
2022/03/09 14:30:14;;;;;;;;;;;1.20;71.40;;;;;;4989577;28;82873;-51